Time;durP1;ratioP1;P1;durP2;ratioP2;P2;SDS_P1;SDS_P2;PMS_P1;PMS_P2;Temp;Humidity;BMP_temperature;BMP_pressure;BME280_temperature;BME280_humidity;BME280_pressure;Samples;Min_cycle;Max_cycle;Signal;HPM_P1;HPM_P2
2023/10/08 00:01:03;;;;;;;10.88;3.72;;;;;;;16.95;100.00;102216.97;5051621;28;20029;-69
2023/10/08 00:03:29;;;;;;;14.77;4.63;;;;;;;16.95;100.00;102219.66;5051568;28;20036;-69
2023/10/08 00:05:55;;;;;;;15.35;3.78;;;;;;;16.92;100.00;102214.66;5051554;28;20110;-68
2023/10/08 00:08:21;;;;;;;7.80;3.53;;;;;;;16.91;100.00;102220.28;5051564;28;20036;-68
2023/10/08 00:10:47;;;;;;;8.60;3.13;;;;;;;16.86;100.00;102213.63;5051504;28;20032;-69
2023/10/08 00:13:15;;;;;;;8.32;3.58;;;;;;;16.83;100.00;102211.34;5051422;28;20365;-69
2023/10/08 00:16:00;;;;;;;12.27;4.68;;;;;;;16.82;100.00;102222.31;5051501;28;20090;-68
2023/10/08 00:18:27;;;;;;;11.30;3.75;;;;;;;16.76;100.00;102210.47;5051344;28;20036;-69
2023/10/08 00:20:58;;;;;;;10.15;4.72;;;;;;;16.79;100.00;102217.34;5051280;28;20033;-69
2023/10/08 00:23:25;;;;;;;13.63;4.47;;;;;;;16.76;100.00;102223.09;5051177;28;20033;-69
2023/10/08 00:25:54;;;;;;;9.75;3.67;;;;;;;16.75;100.00;102233.06;5051318;28;20047;-69
2023/10/08 00:28:24;;;;;;;14.93;4.95;;;;;;;16.74;100.00;102233.25;5050979;28;20166;-68
2023/10/08 00:30:50;;;;;;;14.18;4.38;;;;;;;16.69;100.00;102231.19;5050943;28;20033;-68
2023/10/08 00:33:16;;;;;;;11.32;4.25;;;;;;;16.67;100.00;102224.34;5051028;28;20051;-69
2023/10/08 00:35:42;;;;;;;9.68;3.45;;;;;;;16.62;100.00;102224.94;5050885;28;20060;-68
2023/10/08 00:38:14;;;;;;;10.15;4.07;;;;;;;16.56;100.00;102223.91;5051008;28;20037;-69
2023/10/08 00:40:44;;;;;;;8.88;3.90;;;;;;;16.54;100.00;102228.66;5051009;28;20024;-69
2023/10/08 00:43:10;;;;;;;14.20;4.70;;;;;;;16.49;100.00;102224.91;5050812;28;20021;-69
2023/10/08 00:45:43;;;;;;;9.60;4.25;;;;;;;16.43;100.00;102221.16;5050816;28;20055;-69
2023/10/08 00:48:21;;;;;;;12.77;4.00;;;;;;;16.38;100.00;102229.84;5050778;28;20024;-68
2023/10/08 00:50:47;;;;;;;13.05;4.10;;;;;;;16.34;100.00;102225.06;5050715;28;20044;-69
2023/10/08 00:53:22;;;;;;;10.90;4.18;;;;;;;16.28;100.00;102223.19;5050462;28;20045;-69
2023/10/08 00:56:04;;;;;;;14.27;4.53;;;;;;;16.23;100.00;102241.78;5050688;28;20032;-69
2023/10/08 00:58:32;;;;;;;13.05;4.30;;;;;;;16.20;100.00;102230.38;5034986;28;20036;-69
2023/10/08 01:00:59;;;;;;;13.77;4.72;;;;;;;16.18;100.00;102229.75;5050381;28;20025;-69
2023/10/08 01:03:27;;;;;;;8.45;3.85;;;;;;;16.14;100.00;102231.19;5032589;28;20029;-69
2023/10/08 01:05:54;;;;;;;10.85;5.25;;;;;;;16.11;100.00;102230.75;5050174;28;20044;-69
2023/10/08 01:08:34;;;;;;;13.73;4.70;;;;;;;16.09;100.00;102225.56;5050411;28;20415;-69
2023/10/08 01:11:00;;;;;;;13.65;4.93;;;;;;;16.07;100.00;102216.88;5050288;28;20051;-69
2023/10/08 01:13:27;;;;;;;11.55;4.75;;;;;;;16.02;100.00;102215.81;5050394;28;20091;-69
2023/10/08 01:15:52;;;;;;;9.35;4.28;;;;;;;15.99;100.00;102214.34;5050152;28;20111;-68
2023/10/08 01:18:28;;;;;;;10.75;3.42;;;;;;;16.02;100.00;102226.56;5050351;28;20124;-69
2023/10/08 01:20:54;;;;;;;15.00;5.20;;;;;;;15.94;100.00;102217.63;5047983;28;20032;-69
2023/10/08 01:23:26;;;;;;;11.30;4.57;;;;;;;15.95;100.00;102218.44;5069209;28;20106;-68
2023/10/08 01:26:10;;;;;;;14.10;4.38;;;;;;;15.89;100.00;102206.63;5069254;28;20070;-68
2023/10/08 01:28:35;;;;;;;9.10;3.67;;;;;;;15.88;100.00;102201.47;5069104;28;20029;-69
2023/10/08 01:31:03;;;;;;;9.60;3.42;;;;;;;15.88;100.00;102209.53;5069128;28;20051;-69
2023/10/08 01:33:37;;;;;;;10.57;3.83;;;;;;;15.86;100.00;102192.75;5069038;28;20467;-69
2023/10/08 01:36:04;;;;;;;10.10;4.07;;;;;;;15.84;100.00;102187.56;5069136;28;20486;-68
2023/10/08 01:38:33;;;;;;;12.27;5.47;;;;;;;15.77;100.00;102184.00;5069012;28;20107;-68
2023/10/08 01:41:18;;;;;;;13.50;4.82;;;;;;;15.81;100.00;102190.66;5051550;28;20568;-69
2023/10/08 01:43:45;;;;;;;9.85;3.97;;;;;;;15.81;100.00;102203.28;5069006;28;20649;-68
2023/10/08 01:46:12;;;;;;;12.73;4.38;;;;;;;15.81;100.00;102200.59;5031462;28;20135;-69
2023/10/08 01:48:39;;;;;;;8.88;4.75;;;;;;;15.80;100.00;102206.97;5049784;28;20036;-69
2023/10/08 01:51:11;;;;;;;16.02;5.32;;;;;;;15.76;100.00;102203.84;5049580;28;20029;-68
2023/10/08 01:53:38;;;;;;;10.25;3.65;;;;;;;15.77;100.00;102203.69;5032699;28;20651;-69
2023/10/08 01:56:04;;;;;;;13.10;5.00;;;;;;;15.75;100.00;102213.78;5049691;28;20080;-68
2023/10/08 01:58:29;;;;;;;13.52;5.63;;;;;;;15.70;100.00;102212.72;5031753;28;20099;-68
2023/10/08 02:00:59;;;;;;;13.45;4.28;;;;;;;15.70;100.00;102226.19;5049720;28;20033;-68
2023/10/08 02:03:24;;;;;;;10.50;4.30;;;;;;;15.69;100.00;102230.72;5049641;28;20036;-68
2023/10/08 02:05:53;;;;;;;10.07;4.30;;;;;;;15.67;100.00;102231.94;5049707;28;20029;-68
2023/10/08 02:08:19;;;;;;;12.38;5.15;;;;;;;15.65;100.00;102221.34;5049673;28;20407;-69
2023/10/08 02:10:47;;;;;;;11.60;4.65;;;;;;;15.61;100.00;102228.13;5049677;28;20040;-68
2023/10/08 02:13:14;;;;;;;13.30;5.90;;;;;;;15.60;100.00;102225.66;5049614;28;20087;-68
2023/10/08 02:15:51;;;;;;;16.63;5.03;;;;;;;15.59;100.00;102229.34;5049737;28;20079;-69
2023/10/08 02:18:17;;;;;;;14.43;4.82;;;;;;;15.56;100.00;102223.38;5052114;28;20037;-69
2023/10/08 02:20:43;;;;;;;16.40;5.28;;;;;;;15.55;100.00;102219.00;5053544;28;20021;-69
2023/10/08 02:23:11;;;;;;;13.00;4.68;;;;;;;15.53;100.00;102212.97;5053525;28;20110;-69
2023/10/08 02:25:40;;;;;;;11.15;5.60;;;;;;;15.53;100.00;102220.22;5053523;28;20502;-69
2023/10/08 02:28:08;;;;;;;14.38;6.45;;;;;;;15.49;100.00;102219.78;5053311;28;20037;-69
2023/10/08 02:30:38;;;;;;;13.00;4.43;;;;;;;15.43;100.00;102217.91;5053330;28;20065;-69
2023/10/08 02:33:17;;;;;;;12.52;5.28;;;;;;;15.41;100.00;102225.31;5053498;28;20033;-69
2023/10/08 02:35:43;;;;;;;15.98;4.85;;;;;;;15.39;100.00;102235.44;5051570;28;20442;-68
2023/10/08 02:38:16;;;;;;;12.77;4.63;;;;;;;15.34;100.00;102225.25;5072274;28;20143;-68
2023/10/08 02:40:46;;;;;;;13.35;4.72;;;;;;;15.34;100.00;102238.69;5072430;28;20043;-68
2023/10/08 02:43:14;;;;;;;10.30;4.90;;;;;;;15.32;100.00;102242.59;5072106;28;20032;-68
2023/10/08 02:45:40;;;;;;;14.05;4.93;;;;;;;15.32;100.00;102259.56;5072202;28;20032;-68
2023/10/08 02:48:11;;;;;;;12.13;5.32;;;;;;;15.27;100.00;102245.91;5072122;28;20178;-68
2023/10/08 02:50:41;;;;;;;15.82;6.25;;;;;;;15.29;100.00;102254.56;5072120;28;20028;-68
2023/10/08 02:53:19;;;;;;;20.42;5.68;;;;;;;15.26;100.00;102254.97;5071945;28;20052;-68
2023/10/08 02:55:46;;;;;;;13.48;5.03;;;;;;;15.27;100.00;102275.47;5071987;28;20800;-68
2023/10/08 02:58:14;;;;;;;11.68;5.22;;;;;;;15.27;100.00;102271.91;5072008;28;20154;-68
2023/10/08 03:00:43;;;;;;;11.02;5.35;;;;;;;15.25;100.00;102269.44;5071919;28;20371;-68
2023/10/08 03:03:24;;;;;;;11.77;4.65;;;;;;;15.25;100.00;102255.19;5071844;28;20025;-68
2023/10/08 03:05:52;;;;;;;20.17;5.82;;;;;;;15.25;100.00;102252.50;5052702;28;20029;-68
2023/10/08 03:08:21;;;;;;;13.13;5.10;;;;;;;15.25;100.00;102247.94;5052713;28;20033;-68
2023/10/08 03:10:55;;;;;;;14.25;6.53;;;;;;;15.22;100.00;102242.94;5052593;28;20040;-68
2023/10/08 03:13:21;;;;;;;14.57;5.90;;;;;;;15.22;100.00;102242.94;5052632;28;20048;-68
2023/10/08 03:15:57;;;;;;;13.05;5.47;;;;;;;15.21;100.00;102241.28;5052749;28;20083;-69
2023/10/08 03:18:23;;;;;;;14.88;5.75;;;;;;;15.23;100.00;102252.66;5035666;28;20036;-69
2023/10/08 03:20:49;;;;;;;14.52;5.70;;;;;;;15.19;100.00;102251.38;5052403;28;20033;-69
2023/10/08 03:23:23;;;;;;;11.80;5.03;;;;;;;15.19;100.00;102258.63;5052368;28;20447;-69
2023/10/08 03:26:00;;;;;;;13.95;5.88;;;;;;;15.19;100.00;102262.13;5034582;28;20032;-69
2023/10/08 03:28:29;;;;;;;12.43;5.07;;;;;;;15.15;100.00;102268.09;5052199;28;20057;-68
2023/10/08 03:31:05;;;;;;;14.10;6.32;;;;;;;15.09;100.00;102272.38;5052173;28;20029;-68
2023/10/08 03:33:37;;;;;;;11.38;5.28;;;;;;;15.12;100.00;102272.00;5034390;28;20931;-69
2023/10/08 03:36:22;;;;;;;13.45;5.90;;;;;;;15.10;100.00;102255.22;5034787;28;20116;-69
2023/10/08 03:38:51;;;;;;;16.77;6.72;;;;;;;15.06;100.00;102254.78;5052111;28;20047;-69
2023/10/08 03:41:30;;;;;;;11.73;5.35;;;;;;;15.08;100.00;102262.66;5051907;28;21989;-68
2023/10/08 03:44:02;;;;;;;13.85;5.22;;;;;;;15.06;100.00;102268.22;5052155;28;20056;-69
2023/10/08 03:46:31;;;;;;;13.48;5.22;;;;;;;15.03;100.00;102271.28;5051989;28;20040;-69
2023/10/08 03:49:04;;;;;;;13.07;7.75;;;;;;;15.01;100.00;102259.91;5051847;28;20052;-69
2023/10/08 03:51:35;;;;;;;13.32;5.95;;;;;;;15.01;100.00;102272.50;5051829;28;20063;-69
2023/10/08 03:56:36;;;;;;;14.20;4.78;;;;;;;14.97;100.00;102287.34;5052177;28;20045;-69
2023/10/08 03:59:21;;;;;;;15.93;6.28;;;;;;;14.97;100.00;102279.28;5051864;28;20029;-69
2023/10/08 04:01:54;;;;;;;13.40;5.18;;;;;;;14.94;100.00;102264.38;5051603;28;20037;-69
2023/10/08 04:04:21;;;;;;;16.38;5.93;;;;;;;14.93;100.00;102251.94;5051648;28;20052;-69
2023/10/08 04:06:54;;;;;;;12.38;5.45;;;;;;;14.88;100.00;102265.13;5051678;28;20110;-68
2023/10/08 04:09:25;;;;;;;16.52;6.00;;;;;;;14.87;100.00;102269.66;5051505;28;20033;-68
2023/10/08 04:11:51;;;;;;;15.10;6.07;;;;;;;14.85;100.00;102281.63;5051498;28;20388;-68
2023/10/08 04:14:24;;;;;;;14.88;6.05;;;;;;;14.88;100.00;102281.25;5051638;28;20369;-69
2023/10/08 04:16:52;;;;;;;15.65;5.53;;;;;;;14.84;100.00;102271.91;5070409;28;20033;-69
2023/10/08 04:19:20;;;;;;;10.70;4.95;;;;;;;14.88;100.00;102267.81;5070385;28;20162;-69
2023/10/08 04:21:53;;;;;;;15.45;6.10;;;;;;;14.85;100.00;102278.94;5070365;28;20051;-68
2023/10/08 04:24:19;;;;;;;13.82;5.97;;;;;;;14.85;100.00;102295.88;5055002;28;20025;-68
2023/10/08 04:26:45;;;;;;;14.05;6.93;;;;;;;14.81;100.00;102299.97;5051479;28;20028;-68
2023/10/08 04:29:16;;;;;;;19.25;5.85;;;;;;;14.84;100.00;102304.97;5051156;28;20083;-69
2023/10/08 04:31:46;;;;;;;12.30;6.68;;;;;;;14.82;100.00;102301.63;5034100;28;20021;-69
2023/10/08 04:34:22;;;;;;;13.75;6.15;;;;;;;14.77;100.00;102300.53;5050969;28;20040;-68
2023/10/08 04:36:54;;;;;;;16.35;6.40;;;;;;;14.77;100.00;102305.91;5069952;28;20028;-68
2023/10/08 04:39:32;;;;;;;15.55;5.53;;;;;;;14.77;100.00;102314.81;5070127;28;20503;-68
2023/10/08 04:41:59;;;;;;;15.23;6.03;;;;;;;14.74;100.00;102309.81;5069634;28;20454;-68
2023/10/08 04:44:25;;;;;;;11.48;4.88;;;;;;;14.72;100.00;102327.13;5054028;28;20032;-69
2023/10/08 04:46:52;;;;;;;12.82;6.38;;;;;;;14.72;100.00;102338.69;5050550;28;20045;-68
2023/10/08 04:49:27;;;;;;;12.77;5.70;;;;;;;14.74;100.00;102341.22;5050673;28;20021;-69
2023/10/08 04:52:16;;;;;;;19.17;7.70;;;;;;;14.74;100.00;102342.03;5050615;28;20041;-68
2023/10/08 04:54:51;;;;;;;11.43;5.53;;;;;;;14.66;100.00;102324.19;5050581;28;20043;-69
2023/10/08 04:57:18;;;;;;;12.93;5.40;;;;;;;14.67;100.00;102328.53;5050675;28;20033;-69
2023/10/08 04:59:46;;;;;;;13.55;5.95;;;;;;;14.64;100.00;102323.53;5050436;28;20036;-68
2023/10/08 05:02:13;;;;;;;13.85;5.68;;;;;;;14.67;100.00;102320.50;5050378;28;20475;-69
2023/10/08 05:04:56;;;;;;;13.38;5.70;;;;;;;14.66;100.00;102326.03;5050396;28;20037;-68
2023/10/08 05:12:50;;;;;;;15.02;5.35;;;;;;;14.61;100.00;102334.66;5050352;28;20033;-68
2023/10/08 05:23:53;;;;;;;12.68;5.85;;;;;;;14.50;100.00;102334.25;5050070;28;20036;-69
2023/10/08 05:29:00;;;;;;;18.35;6.15;;;;;;;14.54;100.00;102346.31;5050085;28;20079;-69
2023/10/08 05:34:17;;;;;;;13.50;6.53;;;;;;;14.52;100.00;102334.91;5049851;28;20043;-69
2023/10/08 05:39:40;;;;;;;14.93;7.22;;;;;;;14.54;100.00;102319.47;5069179;28;20043;-69
2023/10/08 05:42:31;;;;;;;16.25;6.32;;;;;;;14.52;100.00;102303.53;5068763;28;20420;-69
2023/10/08 05:55:27;;;;;;;12.93;6.47;;;;;;;14.44;100.00;102338.53;5068933;28;20033;-69
2023/10/08 05:58:13;;;;;;;18.13;7.47;;;;;;;14.45;100.00;102350.94;5068048;28;20062;-69
2023/10/08 06:03:32;;;;;;;14.45;6.63;;;;;;;14.38;100.00;102329.38;5068086;28;20036;-69
2023/10/08 06:14:13;;;;;;;15.68;6.63;;;;;;;14.47;100.00;102352.41;5063978;28;20044;-69
2023/10/08 06:16:41;;;;;;;19.20;7.00;;;;;;;14.44;100.00;102344.72;5053513;28;20151;-69
2023/10/08 06:19:11;;;;;;;15.73;5.93;;;;;;;14.47;100.00;102360.47;5030674;28;20024;-69
2023/10/08 06:21:41;;;;;;;15.32;6.88;;;;;;;14.45;100.00;102362.50;5066982;28;20041;-68
2023/10/08 06:24:09;;;;;;;16.02;6.20;;;;;;;14.45;100.00;102359.81;5068141;28;20056;-69
2023/10/08 06:26:44;;;;;;;18.13;6.45;;;;;;;14.46;100.00;102357.94;5068304;28;20028;-69
2023/10/08 06:29:26;;;;;;;14.75;7.28;;;;;;;14.44;100.00;102355.47;5049139;28;20029;-69
2023/10/08 06:31:55;;;;;;;14.60;6.90;;;;;;;14.46;100.00;102353.44;5049260;28;20107;-68
2023/10/08 06:34:21;;;;;;;17.55;7.32;;;;;;;14.47;100.00;102357.78;5049376;28;20037;-68
2023/10/08 06:36:48;;;;;;;13.75;6.35;;;;;;;14.43;100.00;102348.41;5049198;28;20090;-69
2023/10/08 06:39:18;;;;;;;11.98;6.00;;;;;;;14.47;100.00;102354.25;5049226;28;20430;-68
2023/10/08 06:41:46;;;;;;;18.33;7.18;;;;;;;14.44;100.00;102349.28;5048964;28;20033;-68
2023/10/08 06:44:14;;;;;;;14.90;6.68;;;;;;;14.48;100.00;102358.59;5049124;28;20037;-69
2023/10/08 06:46:40;;;;;;;17.23;6.95;;;;;;;14.47;100.00;102367.69;5058468;28;20039;-68
2023/10/08 06:49:11;;;;;;;15.63;7.95;;;;;;;14.47;100.00;102371.19;5067827;28;20040;-68
2023/10/08 06:51:41;;;;;;;18.45;7.38;;;;;;;14.53;100.00;102385.75;5067912;28;20064;-69
2023/10/08 06:54:10;;;;;;;21.15;7.50;;;;;;;14.52;100.00;102397.50;5067260;28;20121;-69
2023/10/08 06:56:36;;;;;;;18.33;7.88;;;;;;;14.55;100.00;102409.75;5067201;28;20039;-69
2023/10/08 06:59:02;;;;;;;17.48;7.45;;;;;;;14.53;100.00;102411.78;5049133;28;20033;-69
2023/10/08 07:01:38;;;;;;;15.55;7.38;;;;;;;14.46;100.00;102407.13;5067006;28;20517;-68
2023/10/08 07:04:11;;;;;;;17.17;8.13;;;;;;;14.55;100.00;102420.50;5052923;28;20056;-69
2023/10/08 07:06:39;;;;;;;18.05;9.23;;;;;;;14.51;100.00;102414.59;5070630;28;20032;-69
2023/10/08 07:09:06;;;;;;;19.40;7.60;;;;;;;14.56;100.00;102409.56;5070637;28;20025;-69
2023/10/08 07:11:37;;;;;;;14.43;8.07;;;;;;;14.59;100.00;102409.22;5051128;28;20025;-71
2023/10/08 07:14:04;;;;;;;17.92;8.95;;;;;;;14.62;100.00;102410.69;5051293;28;20025;-73
2023/10/08 07:16:30;;;;;;;17.20;9.57;;;;;;;14.60;100.00;102404.66;5051086;28;20037;-71
2023/10/08 07:19:01;;;;;;;20.73;10.77;;;;;;;14.66;100.00;102414.66;5050988;28;20029;-69
2023/10/08 07:21:38;;;;;;;19.65;8.55;;;;;;;14.62;100.00;102405.31;5069278;28;20111;-72
2023/10/08 07:24:09;;;;;;;18.08;9.00;;;;;;;14.65;100.00;102413.00;5070284;28;20048;-72
2023/10/08 07:26:39;;;;;;;18.65;9.98;;;;;;;14.70;100.00;102407.91;5053131;28;20040;-72
2023/10/08 07:29:07;;;;;;;18.38;8.70;;;;;;;14.75;100.00;102404.63;5052131;28;20028;-72
2023/10/08 07:31:34;;;;;;;17.20;8.50;;;;;;;14.80;100.00;102405.78;5070342;28;20758;-72
2023/10/08 07:34:15;;;;;;;15.95;8.52;;;;;;;14.80;100.00;102419.22;5069691;28;20038;-72
2023/10/08 07:36:50;;;;;;;19.87;8.27;;;;;;;14.77;100.00;102432.97;5070022;28;20037;-72
2023/10/08 07:39:24;;;;;;;20.83;9.63;;;;;;;14.67;100.00;102430.59;5069700;28;20521;-72
2023/10/08 07:41:50;;;;;;;20.40;8.13;;;;;;;14.64;100.00;102430.13;5069851;28;20112;-72
2023/10/08 07:44:15;;;;;;;20.42;8.00;;;;;;;14.61;100.00;102434.00;5062052;28;20119;-72
2023/10/08 07:46:41;;;;;;;19.90;9.40;;;;;;;14.63;100.00;102440.03;5050580;28;20434;-72
2023/10/08 07:49:06;;;;;;;19.15;7.88;;;;;;;14.63;100.00;102436.50;5032306;28;20033;-72
2023/10/08 07:51:32;;;;;;;23.33;9.10;;;;;;;14.64;100.00;102436.31;4988741;28;1758671;-71
2023/10/08 07:53:57;;;;;;;21.42;9.30;;;;;;;14.64;100.00;102433.63;5070338;28;20056;-72
2023/10/08 07:56:24;;;;;;;20.45;8.43;;;;;;;14.71;100.00;102447.16;5070071;28;20467;-71
2023/10/08 07:58:50;;;;;;;22.45;8.88;;;;;;;14.68;100.00;102447.53;5052438;28;20027;-72
2023/10/08 08:01:15;;;;;;;18.65;9.20;;;;;;;14.74;100.00;102454.84;5050759;28;20158;-72
2023/10/08 08:03:41;;;;;;;18.60;9.55;;;;;;;14.77;100.00;102450.94;5050611;28;20468;-72
2023/10/08 08:06:11;;;;;;;21.65;10.35;;;;;;;14.79;100.00;102451.59;5050769;28;20037;-72
2023/10/08 08:08:38;;;;;;;18.95;10.10;;;;;;;14.84;100.00;102462.63;5037872;28;20039;-72
2023/10/08 08:11:11;;;;;;;20.35;8.95;;;;;;;14.82;100.00;102454.75;5067160;28;20064;-71
2023/10/08 08:13:43;;;;;;;19.98;10.65;;;;;;;14.90;100.00;102460.03;5070030;28;20024;-71
2023/10/08 08:16:16;;;;;;;23.92;10.13;;;;;;;14.94;100.00;102459.69;5069031;28;20515;-70
2023/10/08 08:18:45;;;;;;;18.83;9.85;;;;;;;15.04;100.00;102455.69;5069759;28;20043;-70
2023/10/08 08:21:15;;;;;;;18.85;9.35;;;;;;;15.16;100.00;102460.56;5034762;28;20078;-70
2023/10/08 08:23:47;;;;;;;22.58;10.48;;;;;;;15.31;100.00;102466.75;5069982;28;20024;-71
2023/10/08 08:26:39;;;;;;;19.85;9.73;;;;;;;15.45;100.00;102470.44;5052176;28;20032;-71
2023/10/08 08:29:08;;;;;;;20.45;11.77;;;;;;;15.59;100.00;102479.47;5055987;28;20498;-70
2023/10/08 08:31:35;;;;;;;17.92;10.55;;;;;;;15.62;100.00;102488.00;5069898;28;20024;-70
2023/10/08 08:34:13;;;;;;;24.55;11.80;;;;;;;15.59;100.00;102474.09;5042317;28;20069;-71
2023/10/08 08:36:46;;;;;;;20.02;9.38;;;;;;;15.61;100.00;102483.63;5034729;28;20043;-70
2023/10/08 08:39:17;;;;;;;22.05;12.65;;;;;;;15.62;100.00;102506.84;5050426;28;20056;-70
2023/10/08 08:41:43;;;;;;;19.92;8.68;;;;;;;15.58;100.00;102505.53;5050706;28;20380;-70
2023/10/08 08:44:09;;;;;;;26.00;10.15;;;;;;;15.54;100.00;102510.47;5050483;28;20037;-70
2023/10/08 08:46:37;;;;;;;26.80;13.40;;;;;;;15.49;100.00;102515.59;5032332;28;20943;-71
2023/10/08 08:49:11;;;;;;;23.15;11.23;;;;;;;15.47;100.00;102506.03;5058324;28;20031;-71
2023/10/08 08:51:37;;;;;;;22.33;10.45;;;;;;;15.39;100.00;102508.84;5060445;28;20052;-70
2023/10/08 08:54:06;;;;;;;25.08;10.48;;;;;;;15.40;100.00;102518.56;5053352;28;20037;-73
2023/10/08 08:56:38;;;;;;;24.35;9.60;;;;;;;15.34;100.00;102518.28;5057757;28;20094;-71
2023/10/08 08:59:11;;;;;;;26.27;10.77;;;;;;;15.39;100.00;102509.66;5050233;28;20017;-70
2023/10/08 09:01:38;;;;;;;25.10;8.88;;;;;;;15.39;100.00;102508.84;5052117;28;20029;-71
2023/10/08 09:04:05;;;;;;;22.65;8.45;;;;;;;15.38;100.00;102518.75;5058195;28;20384;-72
2023/10/08 09:06:37;;;;;;;25.67;10.00;;;;;;;15.43;100.00;102515.50;5059307;28;20021;-72
2023/10/08 09:09:22;;;;;;;30.58;10.82;;;;;;;15.48;100.00;102515.75;5060412;28;20032;-73
2023/10/08 09:11:57;;;;;;;21.48;9.07;;;;;;;15.51;100.00;102515.38;5060743;28;20024;-72
2023/10/08 09:14:25;;;;;;;27.45;8.98;;;;;;;15.52;100.00;102519.75;5060979;28;20029;-72
2023/10/08 09:16:51;;;;;;;26.27;7.45;;;;;;;15.57;100.00;102525.41;5059520;28;20066;-73
2023/10/08 09:19:21;;;;;;;24.30;8.43;;;;;;;15.58;100.00;102527.06;5057804;28;20036;-73
2023/10/08 09:22:08;;;;;;;26.15;9.18;;;;;;;15.46;100.00;102521.34;5059888;28;20065;-72
2023/10/08 09:24:39;;;;;;;19.73;6.75;;;;;;;15.56;100.00;102534.47;5061927;28;20108;-72
2023/10/08 09:27:08;;;;;;;22.75;6.68;;;;;;;15.54;100.00;102531.16;5060712;28;20040;-72
2023/10/08 09:29:39;;;;;;;17.17;6.53;;;;;;;15.51;100.00;102540.44;5056135;28;20094;-72
2023/10/08 09:32:06;;;;;;;22.50;7.23;;;;;;;15.59;100.00;102536.81;5039781;28;20075;-72
2023/10/08 09:34:32;;;;;;;19.88;6.35;;;;;;;15.62;100.00;102532.91;5060272;28;20340;-72
2023/10/08 09:37:01;;;;;;;17.23;6.78;;;;;;;15.51;100.00;102512.69;5042031;28;20138;-73
2023/10/08 09:39:29;;;;;;;20.92;6.93;;;;;;;15.46;100.00;102515.97;5054012;28;20652;-73
2023/10/08 09:41:55;;;;;;;17.42;7.40;;;;;;;15.47;100.00;102527.56;5059316;28;20049;-72
2023/10/08 09:44:25;;;;;;;19.50;7.57;;;;;;;15.45;100.00;102521.53;5058928;28;20032;-69
2023/10/08 09:46:59;;;;;;;20.40;7.90;;;;;;;15.43;100.00;102527.09;5050961;28;20506;-74
2023/10/08 09:49:31;;;;;;;18.80;6.00;;;;;;;15.39;100.00;102525.78;5039928;28;20123;-71
2023/10/08 09:52:01;;;;;;;14.48;6.25;;;;;;;15.42;100.00;102532.66;5055307;28;20052;-74
2023/10/08 09:54:38;;;;;;;19.70;7.75;;;;;;;15.42;100.00;102521.91;5057804;28;20457;-68
2023/10/08 09:57:06;;;;;;;16.35;6.60;;;;;;;15.40;100.00;102518.56;5059188;28;20119;-70
2023/10/08 09:59:33;;;;;;;21.88;8.48;;;;;;;15.34;100.00;102510.22;5046330;28;20067;-68
2023/10/08 10:01:59;;;;;;;17.48;7.10;;;;;;;15.33;100.00;102516.63;5046064;28;20176;-69
2023/10/08 10:04:28;;;;;;;19.02;6.30;;;;;;;15.38;100.00;102512.53;5031602;28;20052;-70
2023/10/08 10:06:57;;;;;;;18.52;7.45;;;;;;;15.40;100.00;102511.31;5046344;28;20157;-69
2023/10/08 10:09:24;;;;;;;15.80;7.80;;;;;;;15.47;100.00;102514.94;5046803;28;20114;-73
2023/10/08 10:11:52;;;;;;;12.10;5.75;;;;;;;15.58;100.00;102516.31;5050749;28;20028;-73
2023/10/08 10:14:18;;;;;;;10.45;4.72;;;;;;;15.63;100.00;102505.81;5053416;28;20116;-75
2023/10/08 10:16:48;;;;;;;15.50;5.85;;;;;;;15.74;100.00;102512.56;5047336;28;20613;-76
2023/10/08 10:19:20;;;;;;;11.07;5.40;;;;;;;15.77;100.00;102522.94;5040044;28;20120;-71
2023/10/08 10:21:47;;;;;;;8.73;4.07;;;;;;;15.84;100.00;102526.56;5059776;28;20035;-74
2023/10/08 10:24:27;;;;;;;10.73;4.70;;;;;;;15.92;100.00;102529.13;5055215;28;20036;-73
2023/10/08 10:27:10;;;;;;;15.27;6.47;;;;;;;15.91;100.00;102527.47;5051862;28;20587;-75
2023/10/08 10:29:36;;;;;;;19.08;5.78;;;;;;;15.78;100.00;102521.94;5061057;28;20128;-74
2023/10/08 10:32:02;;;;;;;16.15;6.80;;;;;;;15.77;100.00;102521.13;5035649;28;20698;-73
2023/10/08 10:34:27;;;;;;;15.90;4.90;;;;;;;15.84;100.00;102518.47;5050141;28;20399;-75
2023/10/08 10:36:56;;;;;;;12.07;4.78;;;;;;;15.86;100.00;102513.75;5047079;28;20037;-74
2023/10/08 10:39:26;;;;;;;14.55;5.57;;;;;;;15.90;100.00;102514.19;5066969;28;20107;-73
2023/10/08 10:41:57;;;;;;;9.43;4.68;;;;;;;15.98;100.00;102520.31;5059922;28;20040;-75
2023/10/08 10:44:25;;;;;;;10.13;3.87;;;;;;;16.02;100.00;102528.81;5059348;28;20433;-72
2023/10/08 10:46:52;;;;;;;11.02;4.72;;;;;;;16.02;100.00;102525.31;5062039;28;20057;-69
2023/10/08 10:49:21;;;;;;;13.90;4.97;;;;;;;16.07;100.00;102539.84;5068602;28;20032;-67
2023/10/08 10:51:52;;;;;;;9.13;4.15;;;;;;;15.96;100.00;102530.41;5064134;28;20096;-69
2023/10/08 10:54:23;;;;;;;11.18;5.13;;;;;;;16.00;100.00;102530.88;5041468;28;20099;-69
2023/10/08 10:57:03;;;;;;;10.00;4.90;;;;;;;15.93;100.00;102532.69;5061176;28;20028;-70
2023/10/08 10:59:38;;;;;;;10.52;5.05;;;;;;;15.78;100.00;102520.09;5056291;28;20031;-70
2023/10/08 11:02:07;;;;;;;10.85;4.97;;;;;;;15.83;100.00;102543.75;5034646;28;20937;-75
2023/10/08 11:04:47;;;;;;;13.57;6.43;;;;;;;15.83;100.00;102545.59;5049974;28;20108;-73
2023/10/08 11:07:15;;;;;;;15.35;5.15;;;;;;;15.97;100.00;102544.72;5048923;28;20734;-71
2023/10/08 11:09:44;;;;;;;10.30;4.75;;;;;;;16.06;100.00;102545.41;5049159;28;20033;-73
2023/10/08 11:12:11;;;;;;;10.57;4.65;;;;;;;16.02;100.00;102536.91;5049726;28;20029;-73
2023/10/08 11:14:42;;;;;;;12.63;5.45;;;;;;;16.06;100.00;102537.34;5064185;28;20067;-73
2023/10/08 11:17:15;;;;;;;14.65;3.95;;;;;;;16.01;100.00;102537.94;5057127;28;20408;-72
2023/10/08 11:19:42;;;;;;;13.93;4.63;;;;;;;15.99;100.00;102534.59;5042533;28;20039;-69
2023/10/08 11:22:15;;;;;;;12.57;6.32;;;;;;;16.04;100.00;102534.84;5059746;28;20033;-70
2023/10/08 11:24:42;;;;;;;12.05;4.82;;;;;;;16.05;100.00;102531.13;5054348;28;20056;-70
2023/10/08 11:27:17;;;;;;;12.35;4.63;;;;;;;16.07;100.00;102530.94;5062969;28;20082;-69
2023/10/08 11:29:47;;;;;;;9.88;4.22;;;;;;;16.11;100.00;102525.00;5056981;28;20542;-68
2023/10/08 11:32:17;;;;;;;11.15;4.10;;;;;;;16.15;100.00;102520.88;5063284;28;20036;-69
2023/10/08 11:34:49;;;;;;;9.13;3.70;;;;;;;16.20;100.00;102520.31;5064898;28;20032;-74
2023/10/08 11:37:35;;;;;;;9.85;4.55;;;;;;;16.23;100.00;102511.00;5038139;28;20067;-73
2023/10/08 11:40:17;;;;;;;10.45;4.20;;;;;;;16.28;100.00;102508.56;5057789;28;20055;-73
2023/10/08 11:42:50;;;;;;;14.40;5.07;;;;;;;16.30;100.00;102501.13;5060157;28;20033;-68
2023/10/08 11:45:26;;;;;;;10.65;4.82;;;;;;;16.44;100.00;102508.28;5059666;28;20040;-70
2023/10/08 11:47:56;;;;;;;10.15;5.10;;;;;;;16.50;100.00;102503.97;5055526;28;20384;-70
2023/10/08 11:50:31;;;;;;;12.80;4.55;;;;;;;16.55;100.00;102502.34;5058620;28;20085;-68
2023/10/08 11:53:05;;;;;;;16.90;6.00;;;;;;;16.64;100.00;102501.19;5038068;28;20052;-73
2023/10/08 11:55:35;;;;;;;13.93;6.00;;;;;;;16.78;100.00;102504.00;5041359;28;20033;-72
2023/10/08 11:58:09;;;;;;;11.82;6.45;;;;;;;16.83;100.00;102501.56;5057491;28;20095;-73
2023/10/08 12:00:36;;;;;;;14.82;7.13;;;;;;;16.90;100.00;102506.97;5061615;28;20078;-72
2023/10/08 12:03:01;;;;;;;14.23;7.20;;;;;;;16.96;100.00;102504.31;5054312;28;20032;-75
2023/10/08 12:05:28;;;;;;;13.43;6.38;;;;;;;17.01;100.00;102496.47;5034310;28;20426;-74
2023/10/08 12:07:57;;;;;;;13.48;6.82;;;;;;;17.09;100.00;102487.38;5056716;28;20036;-74
2023/10/08 12:10:23;;;;;;;11.85;6.78;;;;;;;17.05;100.00;102486.13;5036952;28;20470;-72